Calpine, California
Current Conditions -  °F | °C
As of 2:50 PM on Thursday 27 Nov 2014 (Local Time) from KTRK Reporting Station
Broken Clouds Broken Clouds  
Wind Chill: 63°   Ceiling: 20000
Heat Index: 63°   Visibility: 10mi
Dew Point: 16°   Wind: 15mph
Humidity: 16%   Direction: 190°S
Pressure: 30.23"   Gusts: NA
Location:  39.67°N, 120.44°W
Report Text: KTRK 272250Z 19013KT 10SM FEW160 BKN200 17/M09 A3023 RMK NOSPECI
Loading
Personal Weather Stations






























Interactive Weather Map New forecast layout! Learn more

10-Day Weather Forecast

Advertisements
Track Severe Weather on mobile